sensor_id;sensor_type;location;lat;lon;timestamp;temperature;humidity
30186;DHT22;31152;49.190;8.122;2023-07-31T00:00:52;16.70;99.90
30186;DHT22;31152;49.190;8.122;2023-07-31T00:03:21;16.70;99.90
30186;DHT22;31152;49.190;8.122;2023-07-31T00:05:48;16.70;99.90
30186;DHT22;31152;49.190;8.122;2023-07-31T00:08:15;16.70;99.90
30186;DHT22;31152;49.190;8.122;2023-07-31T00:10:42;16.70;99.90
30186;DHT22;31152;49.190;8.122;2023-07-31T00:13:09;16.70;99.90
30186;DHT22;31152;49.190;8.122;2023-07-31T00:15:37;16.70;99.90
30186;DHT22;31152;49.190;8.122;2023-07-31T00:18:06;16.70;99.90
30186;DHT22;31152;49.190;8.122;2023-07-31T00:20:32;16.70;99.90
30186;DHT22;31152;49.190;8.122;2023-07-31T00:22:59;16.70;99.90
30186;DHT22;31152;49.190;8.122;2023-07-31T00:25:30;16.70;99.90
30186;DHT22;31152;49.190;8.122;2023-07-31T00:27:57;16.70;99.90
30186;DHT22;31152;49.190;8.122;2023-07-31T00:30:24;16.70;99.90
30186;DHT22;31152;49.190;8.122;2023-07-31T00:32:51;16.80;99.90
30186;DHT22;31152;49.190;8.122;2023-07-31T00:35:18;16.80;99.90
30186;DHT22;31152;49.190;8.122;2023-07-31T00:37:45;16.80;99.90
30186;DHT22;31152;49.190;8.122;2023-07-31T00:40:12;16.80;99.90
30186;DHT22;31152;49.190;8.122;2023-07-31T00:42:40;16.80;99.90
30186;DHT22;31152;49.190;8.122;2023-07-31T00:45:07;16.80;99.90
30186;DHT22;31152;49.190;8.122;2023-07-31T00:47:34;16.80;99.90
30186;DHT22;31152;49.190;8.122;2023-07-31T00:50:01;16.80;99.90
30186;DHT22;31152;49.190;8.122;2023-07-31T00:52:30;16.90;99.90
30186;DHT22;31152;49.190;8.122;2023-07-31T00:54:59;16.90;99.90
30186;DHT22;31152;49.190;8.122;2023-07-31T00:57:26;16.80;99.90
30186;DHT22;31152;49.190;8.122;2023-07-31T00:59:53;16.90;99.90
30186;DHT22;31152;49.190;8.122;2023-07-31T01:02:22;16.90;99.90
30186;DHT22;31152;49.190;8.122;2023-07-31T01:04:49;16.90;99.90
30186;DHT22;31152;49.190;8.122;2023-07-31T01:07:35;16.90;99.90
30186;DHT22;31152;49.190;8.122;2023-07-31T01:10:11;16.90;99.90
30186;DHT22;31152;49.190;8.122;2023-07-31T01:12:41;16.80;99.90
30186;DHT22;31152;49.190;8.122;2023-07-31T01:15:09;16.80;99.90
30186;DHT22;31152;49.190;8.122;2023-07-31T01:17:42;16.90;99.90
30186;DHT22;31152;49.190;8.122;2023-07-31T01:20:13;16.80;99.90
30186;DHT22;31152;49.190;8.122;2023-07-31T01:25:56;16.80;99.90
30186;DHT22;31152;49.190;8.122;2023-07-31T01:29:06;16.70;99.90
30186;DHT22;31152;49.190;8.122;2023-07-31T01:31:34;16.70;99.90
30186;DHT22;31152;49.190;8.122;2023-07-31T01:34:03;16.60;99.90
30186;DHT22;31152;49.190;8.122;2023-07-31T01:36:31;16.60;99.90
30186;DHT22;31152;49.190;8.122;2023-07-31T01:39:02;16.50;99.90
30186;DHT22;31152;49.190;8.122;2023-07-31T01:41:29;16.50;99.90
30186;DHT22;31152;49.190;8.122;2023-07-31T01:43:56;16.40;99.90
30186;DHT22;31152;49.190;8.122;2023-07-31T01:46:25;16.40;99.90
30186;DHT22;31152;49.190;8.122;2023-07-31T01:48:52;16.40;99.90
30186;DHT22;31152;49.190;8.122;2023-07-31T01:51:21;16.40;99.90
30186;DHT22;31152;49.190;8.122;2023-07-31T01:53:48;16.40;99.90
30186;DHT22;31152;49.190;8.122;2023-07-31T01:56:15;16.50;99.90
30186;DHT22;31152;49.190;8.122;2023-07-31T01:58:41;16.50;99.90
30186;DHT22;31152;49.190;8.122;2023-07-31T02:01:08;16.50;99.90
30186;DHT22;31152;49.190;8.122;2023-07-31T02:03:35;16.50;99.90
30186;DHT22;31152;49.190;8.122;2023-07-31T02:06:02;16.50;99.90
30186;DHT22;31152;49.190;8.122;2023-07-31T02:08:29;16.50;99.90
30186;DHT22;31152;49.190;8.122;2023-07-31T02:10:56;16.50;99.90
30186;DHT22;31152;49.190;8.122;2023-07-31T02:13:22;16.50;99.90
30186;DHT22;31152;49.190;8.122;2023-07-31T02:15:49;16.50;99.90
30186;DHT22;31152;49.190;8.122;2023-07-31T02:18:19;16.50;99.90
30186;DHT22;31152;49.190;8.122;2023-07-31T02:20:52;16.50;99.90
30186;DHT22;31152;49.190;8.122;2023-07-31T02:23:19;16.50;99.90
30186;DHT22;31152;49.190;8.122;2023-07-31T02:25:46;16.50;99.90
30186;DHT22;31152;49.190;8.122;2023-07-31T02:28:13;16.40;99.90
30186;DHT22;31152;49.190;8.122;2023-07-31T02:30:43;16.40;99.90
30186;DHT22;31152;49.190;8.122;2023-07-31T02:33:10;16.40;99.90
30186;DHT22;31152;49.190;8.122;2023-07-31T02:35:37;16.40;99.90
30186;DHT22;31152;49.190;8.122;2023-07-31T02:38:03;16.40;99.90
30186;DHT22;31152;49.190;8.122;2023-07-31T02:40:30;16.40;99.90
30186;DHT22;31152;49.190;8.122;2023-07-31T02:42:57;16.40;99.90
30186;DHT22;31152;49.190;8.122;2023-07-31T02:45:24;16.30;99.90
30186;DHT22;31152;49.190;8.122;2023-07-31T02:47:53;16.30;99.90
30186;DHT22;31152;49.190;8.122;2023-07-31T02:50:20;16.40;99.90
30186;DHT22;31152;49.190;8.122;2023-07-31T02:52:46;16.40;99.90
30186;DHT22;31152;49.190;8.122;2023-07-31T02:55:13;16.40;99.90
30186;DHT22;31152;49.190;8.122;2023-07-31T02:57:42;16.30;99.90
30186;DHT22;31152;49.190;8.122;2023-07-31T03:00:09;16.30;99.90
30186;DHT22;31152;49.190;8.122;2023-07-31T03:02:36;16.30;99.90
30186;DHT22;31152;49.190;8.122;2023-07-31T03:05:06;16.30;99.90
30186;DHT22;31152;49.190;8.122;2023-07-31T03:07:32;16.30;99.90
30186;DHT22;31152;49.190;8.122;2023-07-31T03:09:59;16.20;99.90
30186;DHT22;31152;49.190;8.122;2023-07-31T03:12:28;16.20;99.90
30186;DHT22;31152;49.190;8.122;2023-07-31T03:14:58;16.20;99.90
30186;DHT22;31152;49.190;8.122;2023-07-31T03:17:25;16.20;99.90
30186;DHT22;31152;49.190;8.122;2023-07-31T03:19:52;16.20;99.90
30186;DHT22;31152;49.190;8.122;2023-07-31T03:22:19;16.20;99.90
30186;DHT22;31152;49.190;8.122;2023-07-31T03:24:45;16.20;99.90
30186;DHT22;31152;49.190;8.122;2023-07-31T03:27:14;16.20;99.90
30186;DHT22;31152;49.190;8.122;2023-07-31T03:29:41;16.20;99.90
30186;DHT22;31152;49.190;8.122;2023-07-31T03:32:08;16.20;99.90
30186;DHT22;31152;49.190;8.122;2023-07-31T03:34:39;16.10;99.90
30186;DHT22;31152;49.190;8.122;2023-07-31T03:37:06;16.10;99.90
30186;DHT22;31152;49.190;8.122;2023-07-31T03:39:33;16.10;99.90
30186;DHT22;31152;49.190;8.122;2023-07-31T03:42:02;16.00;99.90
30186;DHT22;31152;49.190;8.122;2023-07-31T03:44:29;16.00;99.90
30186;DHT22;31152;49.190;8.122;2023-07-31T03:46:58;16.00;99.90
30186;DHT22;31152;49.190;8.122;2023-07-31T03:49:25;16.00;99.90
30186;DHT22;31152;49.190;8.122;2023-07-31T03:51:53;16.00;99.90
30186;DHT22;31152;49.190;8.122;2023-07-31T03:54:25;16.00;99.90
30186;DHT22;31152;49.190;8.122;2023-07-31T03:56:52;16.00;99.90
30186;DHT22;31152;49.190;8.122;2023-07-31T03:59:18;16.00;99.90
30186;DHT22;31152;49.190;8.122;2023-07-31T04:01:45;16.00;99.90
30186;DHT22;31152;49.190;8.122;2023-07-31T04:04:12;16.00;99.90
30186;DHT22;31152;49.190;8.122;2023-07-31T04:06:41;16.00;99.90
30186;DHT22;31152;49.190;8.122;2023-07-31T04:09:10;16.00;99.90
30186;DHT22;31152;49.190;8.122;2023-07-31T04:11:37;16.00;99.90
30186;DHT22;31152;49.190;8.122;2023-07-31T04:14:04;16.00;99.90
30186;DHT22;31152;49.190;8.122;2023-07-31T04:16:30;16.00;99.90
30186;DHT22;31152;49.190;8.122;2023-07-31T04:18:57;15.90;99.90
30186;DHT22;31152;49.190;8.122;2023-07-31T04:21:24;15.90;99.90
30186;DHT22;31152;49.190;8.122;2023-07-31T04:23:51;15.90;99.90
30186;DHT22;31152;49.190;8.122;2023-07-31T04:26:22;15.90;99.90
30186;DHT22;31152;49.190;8.122;2023-07-31T04:28:50;15.90;99.90
30186;DHT22;31152;49.190;8.122;2023-07-31T04:31:17;15.90;99.90
30186;DHT22;31152;49.190;8.122;2023-07-31T04:33:44;15.90;99.90
30186;DHT22;31152;49.190;8.122;2023-07-31T04:36:10;15.90;99.90
30186;DHT22;31152;49.190;8.122;2023-07-31T04:38:40;15.90;99.90
30186;DHT22;31152;49.190;8.122;2023-07-31T04:41:07;16.00;99.90
30186;DHT22;31152;49.190;8.122;2023-07-31T04:43:34;15.90;99.90
30186;DHT22;31152;49.190;8.122;2023-07-31T04:46:01;16.00;99.90
30186;DHT22;31152;49.190;8.122;2023-07-31T04:48:28;16.00;99.90
30186;DHT22;31152;49.190;8.122;2023-07-31T04:50:54;16.00;99.90
30186;DHT22;31152;49.190;8.122;2023-07-31T04:53:21;16.00;99.90
30186;DHT22;31152;49.190;8.122;2023-07-31T04:55:50;16.10;99.90
30186;DHT22;31152;49.190;8.122;2023-07-31T04:58:17;16.00;99.90
30186;DHT22;31152;49.190;8.122;2023-07-31T05:00:46;16.00;99.90
30186;DHT22;31152;49.190;8.122;2023-07-31T05:03:13;16.10;99.90
30186;DHT22;31152;49.190;8.122;2023-07-31T05:05:39;16.10;99.90
30186;DHT22;31152;49.190;8.122;2023-07-31T05:08:06;16.10;99.90
30186;DHT22;31152;49.190;8.122;2023-07-31T05:10:33;16.20;99.90
30186;DHT22;31152;49.190;8.122;2023-07-31T05:13:00;16.30;99.90
30186;DHT22;31152;49.190;8.122;2023-07-31T05:15:26;16.30;99.90
30186;DHT22;31152;49.190;8.122;2023-07-31T05:17:53;16.30;99.90
30186;DHT22;31152;49.190;8.122;2023-07-31T05:20:24;16.30;99.90
30186;DHT22;31152;49.190;8.122;2023-07-31T05:22:51;16.40;99.90
30186;DHT22;31152;49.190;8.122;2023-07-31T05:25:21;16.50;99.90
30186;DHT22;31152;49.190;8.122;2023-07-31T05:27:50;16.60;99.90
30186;DHT22;31152;49.190;8.122;2023-07-31T05:30:17;16.70;99.90
30186;DHT22;31152;49.190;8.122;2023-07-31T05:32:44;16.80;99.90
30186;DHT22;31152;49.190;8.122;2023-07-31T05:35:15;16.90;99.90
30186;DHT22;31152;49.190;8.122;2023-07-31T05:37:42;17.00;99.90
30186;DHT22;31152;49.190;8.122;2023-07-31T05:40:09;17.20;99.90
30186;DHT22;31152;49.190;8.122;2023-07-31T05:42:36;17.30;99.90
30186;DHT22;31152;49.190;8.122;2023-07-31T05:45:07;17.40;99.90
30186;DHT22;31152;49.190;8.122;2023-07-31T05:47:34;17.50;99.90
30186;DHT22;31152;49.190;8.122;2023-07-31T05:50:03;17.60;99.90
30186;DHT22;31152;49.190;8.122;2023-07-31T05:52:32;17.70;99.90
30186;DHT22;31152;49.190;8.122;2023-07-31T05:54:59;17.80;99.90
30186;DHT22;31152;49.190;8.122;2023-07-31T05:57:29;17.90;99.90
30186;DHT22;31152;49.190;8.122;2023-07-31T05:59:56;17.90;99.90
30186;DHT22;31152;49.190;8.122;2023-07-31T06:02:23;17.90;99.90
30186;DHT22;31152;49.190;8.122;2023-07-31T06:04:55;17.90;99.90
30186;DHT22;31152;49.190;8.122;2023-07-31T06:07:22;17.90;99.90
30186;DHT22;31152;49.190;8.122;2023-07-31T06:09:48;17.90;99.90
30186;DHT22;31152;49.190;8.122;2023-07-31T06:12:18;17.80;99.90
30186;DHT22;31152;49.190;8.122;2023-07-31T06:14:47;17.80;99.90
30186;DHT22;31152;49.190;8.122;2023-07-31T06:17:13;17.80;99.90
30186;DHT22;31152;49.190;8.122;2023-07-31T06:19:40;17.80;99.90
30186;DHT22;31152;49.190;8.122;2023-07-31T06:22:07;17.80;99.90
30186;DHT22;31152;49.190;8.122;2023-07-31T06:24:34;17.70;99.90
30186;DHT22;31152;49.190;8.122;2023-07-31T06:27:00;17.70;99.90
30186;DHT22;31152;49.190;8.122;2023-07-31T06:29:32;17.70;99.90
30186;DHT22;31152;49.190;8.122;2023-07-31T06:31:59;17.60;99.90
30186;DHT22;31152;49.190;8.122;2023-07-31T06:34:29;17.60;99.90
30186;DHT22;31152;49.190;8.122;2023-07-31T06:36:56;17.60;99.90
30186;DHT22;31152;49.190;8.122;2023-07-31T06:39:23;17.60;99.90
30186;DHT22;31152;49.190;8.122;2023-07-31T06:41:50;17.60;99.90
30186;DHT22;31152;49.190;8.122;2023-07-31T06:44:17;17.50;99.90
30186;DHT22;31152;49.190;8.122;2023-07-31T06:46:44;17.60;99.90
30186;DHT22;31152;49.190;8.122;2023-07-31T06:49:13;17.60;99.90
30186;DHT22;31152;49.190;8.122;2023-07-31T06:51:45;17.70;99.90
30186;DHT22;31152;49.190;8.122;2023-07-31T06:54:12;17.70;99.90
30186;DHT22;31152;49.190;8.122;2023-07-31T06:56:39;17.70;99.90
30186;DHT22;31152;49.190;8.122;2023-07-31T06:59:07;17.70;99.90
30186;DHT22;31152;49.190;8.122;2023-07-31T07:01:36;17.80;99.90
30186;DHT22;31152;49.190;8.122;2023-07-31T07:04:03;17.90;99.90
30186;DHT22;31152;49.190;8.122;2023-07-31T07:06:30;18.10;99.90
30186;DHT22;31152;49.190;8.122;2023-07-31T07:08:57;18.30;99.90
30186;DHT22;31152;49.190;8.122;2023-07-31T07:11:23;18.40;99.90
30186;DHT22;31152;49.190;8.122;2023-07-31T07:13:50;18.40;99.90
30186;DHT22;31152;49.190;8.122;2023-07-31T07:16:17;18.60;99.90
30186;DHT22;31152;49.190;8.122;2023-07-31T07:18:44;18.70;99.90
30186;DHT22;31152;49.190;8.122;2023-07-31T07:21:28;18.80;99.90
30186;DHT22;31152;49.190;8.122;2023-07-31T07:23:55;18.90;99.90
30186;DHT22;31152;49.190;8.122;2023-07-31T07:26:24;19.10;99.90
30186;DHT22;31152;49.190;8.122;2023-07-31T07:28:51;19.10;99.90
30186;DHT22;31152;49.190;8.122;2023-07-31T07:31:20;19.20;99.90
30186;DHT22;31152;49.190;8.122;2023-07-31T07:33:47;19.30;99.90
30186;DHT22;31152;49.190;8.122;2023-07-31T07:36:16;19.40;99.90
30186;DHT22;31152;49.190;8.122;2023-07-31T07:38:43;19.30;99.90
30186;DHT22;31152;49.190;8.122;2023-07-31T07:41:12;19.40;99.90
30186;DHT22;31152;49.190;8.122;2023-07-31T07:43:42;19.40;99.90
30186;DHT22;31152;49.190;8.122;2023-07-31T07:46:08;19.30;99.90
30186;DHT22;31152;49.190;8.122;2023-07-31T07:48:38;19.40;99.90
30186;DHT22;31152;49.190;8.122;2023-07-31T07:51:06;19.40;99.90
30186;DHT22;31152;49.190;8.122;2023-07-31T07:53:35;19.40;99.90
30186;DHT22;31152;49.190;8.122;2023-07-31T07:56:04;19.30;99.90
30186;DHT22;31152;49.190;8.122;2023-07-31T07:58:31;19.20;99.90
30186;DHT22;31152;49.190;8.122;2023-07-31T08:00:58;19.10;99.90
30186;DHT22;31152;49.190;8.122;2023-07-31T08:03:25;19.20;99.90
30186;DHT22;31152;49.190;8.122;2023-07-31T08:05:58;19.10;99.90
30186;DHT22;31152;49.190;8.122;2023-07-31T08:08:28;19.20;99.90
30186;DHT22;31152;49.190;8.122;2023-07-31T08:10:57;19.40;99.90
30186;DHT22;31152;49.190;8.122;2023-07-31T08:13:24;19.60;99.90
30186;DHT22;31152;49.190;8.122;2023-07-31T08:15:50;19.70;99.90
30186;DHT22;31152;49.190;8.122;2023-07-31T08:18:20;19.70;99.90
30186;DHT22;31152;49.190;8.122;2023-07-31T08:20:47;19.80;99.90
30186;DHT22;31152;49.190;8.122;2023-07-31T08:23:14;19.90;99.90
30186;DHT22;31152;49.190;8.122;2023-07-31T08:25:41;20.10;99.90
30186;DHT22;31152;49.190;8.122;2023-07-31T08:28:07;20.40;99.90
30186;DHT22;31152;49.190;8.122;2023-07-31T08:30:34;20.40;99.90
30186;DHT22;31152;49.190;8.122;2023-07-31T08:33:01;20.50;99.90
30186;DHT22;31152;49.190;8.122;2023-07-31T08:35:28;20.60;99.90
30186;DHT22;31152;49.190;8.122;2023-07-31T08:37:55;20.70;99.90
30186;DHT22;31152;49.190;8.122;2023-07-31T08:40:22;20.60;99.90
30186;DHT22;31152;49.190;8.122;2023-07-31T08:42:53;20.70;99.90
30186;DHT22;31152;49.190;8.122;2023-07-31T08:45:25;20.80;99.90
30186;DHT22;31152;49.190;8.122;2023-07-31T08:47:52;21.00;99.90
30186;DHT22;31152;49.190;8.122;2023-07-31T08:50:24;21.00;99.90
30186;DHT22;31152;49.190;8.122;2023-07-31T08:52:54;21.20;99.90
30186;DHT22;31152;49.190;8.122;2023-07-31T08:55:24;21.30;99.90
30186;DHT22;31152;49.190;8.122;2023-07-31T08:57:54;21.40;99.90
30186;DHT22;31152;49.190;8.122;2023-07-31T09:00:21;21.40;99.90
30186;DHT22;31152;49.190;8.122;2023-07-31T09:03:14;21.30;99.90
30186;DHT22;31152;49.190;8.122;2023-07-31T09:05:43;21.20;99.90
30186;DHT22;31152;49.190;8.122;2023-07-31T09:08:14;21.20;99.90
30186;DHT22;31152;49.190;8.122;2023-07-31T09:10:42;21.30;99.90
30186;DHT22;31152;49.190;8.122;2023-07-31T09:13:10;21.20;99.90
30186;DHT22;31152;49.190;8.122;2023-07-31T09:15:40;21.30;99.90
30186;DHT22;31152;49.190;8.122;2023-07-31T09:18:07;21.50;99.90
30186;DHT22;31152;49.190;8.122;2023-07-31T09:20:35;21.70;99.90
30186;DHT22;31152;49.190;8.122;2023-07-31T09:23:14;21.60;99.90
30186;DHT22;31152;49.190;8.122;2023-07-31T09:25:45;21.60;99.90
30186;DHT22;31152;49.190;8.122;2023-07-31T09:28:12;21.70;99.90
30186;DHT22;31152;49.190;8.122;2023-07-31T09:30:51;21.60;99.90
30186;DHT22;31152;49.190;8.122;2023-07-31T09:33:19;21.40;99.90
30186;DHT22;31152;49.190;8.122;2023-07-31T09:35:48;21.40;99.90
30186;DHT22;31152;49.190;8.122;2023-07-31T09:38:16;21.50;99.90
30186;DHT22;31152;49.190;8.122;2023-07-31T09:40:48;21.60;99.90
30186;DHT22;31152;49.190;8.122;2023-07-31T09:43:22;21.80;99.90
30186;DHT22;31152;49.190;8.122;2023-07-31T09:45:55;21.90;99.90
30186;DHT22;31152;49.190;8.122;2023-07-31T09:48:23;21.90;99.90
30186;DHT22;31152;49.190;8.122;2023-07-31T09:50:53;21.90;99.90
30186;DHT22;31152;49.190;8.122;2023-07-31T09:53:28;22.00;99.90
30186;DHT22;31152;49.190;8.122;2023-07-31T09:55:58;22.10;99.90
30186;DHT22;31152;49.190;8.122;2023-07-31T09:58:28;22.00;99.90
30186;DHT22;31152;49.190;8.122;2023-07-31T10:00:57;22.10;99.90
30186;DHT22;31152;49.190;8.122;2023-07-31T10:03:25;22.20;99.90
30186;DHT22;31152;49.190;8.122;2023-07-31T10:05:55;22.20;99.90
30186;DHT22;31152;49.190;8.122;2023-07-31T10:08:28;22.40;99.90
30186;DHT22;31152;49.190;8.122;2023-07-31T10:10:59;22.40;99.90
30186;DHT22;31152;49.190;8.122;2023-07-31T10:13:28;22.50;99.90
30186;DHT22;31152;49.190;8.122;2023-07-31T10:15:58;22.70;99.90
30186;DHT22;31152;49.190;8.122;2023-07-31T10:18:28;22.60;99.10
30186;DHT22;31152;49.190;8.122;2023-07-31T10:20:56;22.80;99.70
30186;DHT22;31152;49.190;8.122;2023-07-31T10:23:25;22.70;99.00
30186;DHT22;31152;49.190;8.122;2023-07-31T10:25:53;22.80;99.90
30186;DHT22;31152;49.190;8.122;2023-07-31T10:28:22;22.90;99.10
30186;DHT22;31152;49.190;8.122;2023-07-31T10:30:51;23.00;99.80
30186;DHT22;31152;49.190;8.122;2023-07-31T10:33:19;22.90;99.90
30186;DHT22;31152;49.190;8.122;2023-07-31T10:35:48;23.00;99.90
30186;DHT22;31152;49.190;8.122;2023-07-31T10:38:15;23.00;98.20
30186;DHT22;31152;49.190;8.122;2023-07-31T10:40:45;22.90;97.50
30186;DHT22;31152;49.190;8.122;2023-07-31T10:43:24;23.20;97.00
30186;DHT22;31152;49.190;8.122;2023-07-31T10:45:52;23.30;96.70
30186;DHT22;31152;49.190;8.122;2023-07-31T10:48:22;23.30;96.50
30186;DHT22;31152;49.190;8.122;2023-07-31T10:50:52;23.30;96.10
30186;DHT22;31152;49.190;8.122;2023-07-31T10:53:31;23.10;97.00
30186;DHT22;31152;49.190;8.122;2023-07-31T10:56:03;23.00;96.90
30186;DHT22;31152;49.190;8.122;2023-07-31T10:58:33;22.90;97.30
30186;DHT22;31152;49.190;8.122;2023-07-31T11:01:02;22.90;96.80
30186;DHT22;31152;49.190;8.122;2023-07-31T11:03:42;22.80;96.80
30186;DHT22;31152;49.190;8.122;2023-07-31T11:06:10;22.90;97.50
30186;DHT22;31152;49.190;8.122;2023-07-31T11:11:13;22.90;97.30
30186;DHT22;31152;49.190;8.122;2023-07-31T11:16:17;23.00;97.70
30186;DHT22;31152;49.190;8.122;2023-07-31T11:18:45;23.00;97.50
30186;DHT22;31152;49.190;8.122;2023-07-31T11:21:13;22.90;97.10
30186;DHT22;31152;49.190;8.122;2023-07-31T11:23:41;22.90;97.10
30186;DHT22;31152;49.190;8.122;2023-07-31T11:26:07;22.90;97.20
30186;DHT22;31152;49.190;8.122;2023-07-31T11:28:36;22.80;97.30
30186;DHT22;31152;49.190;8.122;2023-07-31T11:31:09;22.70;97.50
30186;DHT22;31152;49.190;8.122;2023-07-31T11:33:37;22.70;98.00
30186;DHT22;31152;49.190;8.122;2023-07-31T11:36:04;22.70;97.90
30186;DHT22;31152;49.190;8.122;2023-07-31T11:38:34;22.70;97.70
30186;DHT22;31152;49.190;8.122;2023-07-31T11:41:02;22.80;97.30
30186;DHT22;31152;49.190;8.122;2023-07-31T11:43:31;23.00;97.40
30186;DHT22;31152;49.190;8.122;2023-07-31T11:46:00;23.10;96.90
30186;DHT22;31152;49.190;8.122;2023-07-31T11:48:32;23.10;97.40
30186;DHT22;31152;49.190;8.122;2023-07-31T11:51:02;23.20;96.30
30186;DHT22;31152;49.190;8.122;2023-07-31T11:56:10;23.40;96.20
30186;DHT22;31152;49.190;8.122;2023-07-31T11:58:41;23.40;96.30
30186;DHT22;31152;49.190;8.122;2023-07-31T12:01:09;23.50;96.40
30186;DHT22;31152;49.190;8.122;2023-07-31T12:03:37;23.50;96.50
30186;DHT22;31152;49.190;8.122;2023-07-31T12:06:04;23.40;96.10
30186;DHT22;31152;49.190;8.122;2023-07-31T12:08:31;23.40;96.70
30186;DHT22;31152;49.190;8.122;2023-07-31T12:11:04;23.70;96.40
30186;DHT22;31152;49.190;8.122;2023-07-31T12:13:33;23.70;95.70
30186;DHT22;31152;49.190;8.122;2023-07-31T12:16:02;23.80;96.70
30186;DHT22;31152;49.190;8.122;2023-07-31T12:18:36;24.10;96.60
30186;DHT22;31152;49.190;8.122;2023-07-31T12:21:06;24.00;95.10
30186;DHT22;31152;49.190;8.122;2023-07-31T12:23:35;23.80;95.50
30186;DHT22;31152;49.190;8.122;2023-07-31T12:26:16;23.70;95.60
30186;DHT22;31152;49.190;8.122;2023-07-31T12:28:50;23.70;95.80
30186;DHT22;31152;49.190;8.122;2023-07-31T12:31:20;23.50;96.10
30186;DHT22;31152;49.190;8.122;2023-07-31T12:33:49;23.40;97.00
30186;DHT22;31152;49.190;8.122;2023-07-31T12:36:25;23.30;96.90
30186;DHT22;31152;49.190;8.122;2023-07-31T12:38:57;23.30;96.80
30186;DHT22;31152;49.190;8.122;2023-07-31T12:41:26;23.30;96.30
30186;DHT22;31152;49.190;8.122;2023-07-31T12:43:53;23.10;96.40
30186;DHT22;31152;49.190;8.122;2023-07-31T12:46:21;23.10;96.70
30186;DHT22;31152;49.190;8.122;2023-07-31T12:48:48;23.20;97.10
30186;DHT22;31152;49.190;8.122;2023-07-31T12:51:14;23.20;97.10
30186;DHT22;31152;49.190;8.122;2023-07-31T12:53:41;23.10;97.10
30186;DHT22;31152;49.190;8.122;2023-07-31T12:56:11;23.00;97.50
30186;DHT22;31152;49.190;8.122;2023-07-31T12:58:40;22.90;97.70
30186;DHT22;31152;49.190;8.122;2023-07-31T13:01:07;22.90;98.20
30186;DHT22;31152;49.190;8.122;2023-07-31T13:03:33;23.00;98.40
30186;DHT22;31152;49.190;8.122;2023-07-31T13:06:00;23.20;98.00
30186;DHT22;31152;49.190;8.122;2023-07-31T13:08:27;23.10;97.40
30186;DHT22;31152;49.190;8.122;2023-07-31T13:10:54;23.20;97.50
30186;DHT22;31152;49.190;8.122;2023-07-31T13:13:21;23.30;98.00
30186;DHT22;31152;49.190;8.122;2023-07-31T13:15:51;23.20;97.50
30186;DHT22;31152;49.190;8.122;2023-07-31T13:18:23;23.30;97.00
30186;DHT22;31152;49.190;8.122;2023-07-31T13:20:50;23.40;97.00
30186;DHT22;31152;49.190;8.122;2023-07-31T13:23:17;23.50;97.00
30186;DHT22;31152;49.190;8.122;2023-07-31T13:25:43;23.40;97.40
30186;DHT22;31152;49.190;8.122;2023-07-31T13:28:12;23.60;97.20
30186;DHT22;31152;49.190;8.122;2023-07-31T13:30:42;23.60;97.30
30186;DHT22;31152;49.190;8.122;2023-07-31T13:33:08;23.60;97.50
30186;DHT22;31152;49.190;8.122;2023-07-31T13:35:53;23.60;97.40
30186;DHT22;31152;49.190;8.122;2023-07-31T13:38:20;23.70;97.30
30186;DHT22;31152;49.190;8.122;2023-07-31T13:40:47;23.60;96.90
30186;DHT22;31152;49.190;8.122;2023-07-31T13:43:14;23.50;97.50
30186;DHT22;31152;49.190;8.122;2023-07-31T13:45:40;23.30;98.00
30186;DHT22;31152;49.190;8.122;2023-07-31T13:48:07;23.30;97.80
30186;DHT22;31152;49.190;8.122;2023-07-31T13:50:37;23.30;98.00
30186;DHT22;31152;49.190;8.122;2023-07-31T13:53:06;23.20;98.10
30186;DHT22;31152;49.190;8.122;2023-07-31T13:55:32;23.20;98.20
30186;DHT22;31152;49.190;8.122;2023-07-31T13:58:01;23.10;98.60
30186;DHT22;31152;49.190;8.122;2023-07-31T14:00:33;23.10;98.30
30186;DHT22;31152;49.190;8.122;2023-07-31T14:03:01;23.00;98.30
30186;DHT22;31152;49.190;8.122;2023-07-31T14:05:31;23.00;98.20
30186;DHT22;31152;49.190;8.122;2023-07-31T14:07:57;22.80;98.40
30186;DHT22;31152;49.190;8.122;2023-07-31T14:10:24;22.80;98.80
30186;DHT22;31152;49.190;8.122;2023-07-31T14:12:54;22.90;98.60
30186;DHT22;31152;49.190;8.122;2023-07-31T14:15:21;22.80;98.90
30186;DHT22;31152;49.190;8.122;2023-07-31T14:17:48;22.70;99.00
30186;DHT22;31152;49.190;8.122;2023-07-31T14:20:15;22.60;99.50
30186;DHT22;31152;49.190;8.122;2023-07-31T14:22:42;22.60;99.50
30186;DHT22;31152;49.190;8.122;2023-07-31T14:25:09;22.60;99.90
30186;DHT22;31152;49.190;8.122;2023-07-31T14:27:37;22.50;99.90
30186;DHT22;31152;49.190;8.122;2023-07-31T14:30:04;22.50;99.90
30186;DHT22;31152;49.190;8.122;2023-07-31T14:32:31;22.60;99.90
30186;DHT22;31152;49.190;8.122;2023-07-31T14:35:01;22.70;99.90
30186;DHT22;31152;49.190;8.122;2023-07-31T14:37:39;22.70;99.90
30186;DHT22;31152;49.190;8.122;2023-07-31T14:40:11;22.90;99.90
30186;DHT22;31152;49.190;8.122;2023-07-31T14:42:40;23.00;99.90
30186;DHT22;31152;49.190;8.122;2023-07-31T14:45:07;23.10;99.90
30186;DHT22;31152;49.190;8.122;2023-07-31T14:47:35;23.20;99.60
30186;DHT22;31152;49.190;8.122;2023-07-31T14:50:03;23.30;99.40
30186;DHT22;31152;49.190;8.122;2023-07-31T14:52:30;23.30;99.20
30186;DHT22;31152;49.190;8.122;2023-07-31T14:54:57;23.40;99.80
30186;DHT22;31152;49.190;8.122;2023-07-31T14:57:24;23.40;98.70
30186;DHT22;31152;49.190;8.122;2023-07-31T14:59:53;23.40;99.00
30186;DHT22;31152;49.190;8.122;2023-07-31T15:02:19;23.40;99.10
30186;DHT22;31152;49.190;8.122;2023-07-31T15:04:46;23.50;99.10
30186;DHT22;31152;49.190;8.122;2023-07-31T15:07:16;23.50;99.00
30186;DHT22;31152;49.190;8.122;2023-07-31T15:09:42;23.40;98.60
30186;DHT22;31152;49.190;8.122;2023-07-31T15:12:09;23.40;98.70
30186;DHT22;31152;49.190;8.122;2023-07-31T15:14:36;23.30;98.90
30186;DHT22;31152;49.190;8.122;2023-07-31T15:17:03;23.20;99.10
30186;DHT22;31152;49.190;8.122;2023-07-31T15:19:30;23.20;99.60
30186;DHT22;31152;49.190;8.122;2023-07-31T15:22:02;23.10;99.70
30186;DHT22;31152;49.190;8.122;2023-07-31T15:24:29;23.10;99.90
30186;DHT22;31152;49.190;8.122;2023-07-31T15:26:56;23.10;99.50
30186;DHT22;31152;49.190;8.122;2023-07-31T15:29:23;22.90;99.90
30186;DHT22;31152;49.190;8.122;2023-07-31T15:31:49;23.00;99.90
30186;DHT22;31152;49.190;8.122;2023-07-31T15:34:21;22.90;99.90
30186;DHT22;31152;49.190;8.122;2023-07-31T15:36:48;22.80;99.90
30186;DHT22;31152;49.190;8.122;2023-07-31T15:39:15;22.80;99.90
30186;DHT22;31152;49.190;8.122;2023-07-31T15:41:44;22.80;99.90
30186;DHT22;31152;49.190;8.122;2023-07-31T15:44:14;22.80;99.90
30186;DHT22;31152;49.190;8.122;2023-07-31T15:46:41;22.80;99.90
30186;DHT22;31152;49.190;8.122;2023-07-31T15:49:08;22.80;99.90